Time;durP1;ratioP1;P1;durP2;ratioP2;P2;SDS_P1;SDS_P2;PMS_P1;PMS_P2;Temp;Humidity;BMP_temperature;BMP_pressure;BME280_temperature;BME280_humidity;BME280_pressure;Samples;Min_cycle;Max_cycle;Signal;HPM_P1;HPM_P2
2022/10/22 00:01:07;;;;;;;11.57;3.60;;;;;;;-143.48;90.57;78083.56;5018753;28;20080;-70
2022/10/22 00:03:33;;;;;;;8.45;3.50;;;;;;;-143.48;90.69;78079.59;5017635;28;20034;-70
2022/10/22 00:05:58;;;;;;;9.07;3.92;;;;;;;-143.48;90.91;78087.53;5016524;28;20044;-70
2022/10/22 00:08:24;;;;;;;8.30;3.20;;;;;;;-143.48;91.24;78089.50;5017339;28;20034;-70
2022/10/22 00:10:49;;;;;;;10.15;3.60;;;;;;;-143.48;90.96;78089.50;4999644;28;20046;-71
2022/10/22 00:13:15;;;;;;;7.43;3.33;;;;;;;-143.48;91.16;78085.53;5016772;28;20044;-70
2022/10/22 00:15:40;;;;;;;7.70;3.47;;;;;;;-143.48;91.01;78079.59;5017155;28;20109;-70
2022/10/22 00:18:06;;;;;;;12.27;3.72;;;;;;;-143.48;90.94;78081.56;5016402;28;20021;-70
2022/10/22 00:20:31;;;;;;;6.03;3.30;;;;;;;-143.48;90.92;78081.56;5017287;28;20037;-75
2022/10/22 00:22:56;;;;;;;8.95;3.40;;;;;;;-143.48;90.74;78083.56;5018314;28;20386;-70
2022/10/22 00:25:22;;;;;;;12.23;3.97;;;;;;;-143.48;91.15;78085.53;5015961;28;20485;-71
2022/10/22 00:27:47;;;;;;;8.45;3.60;;;;;;;-143.48;91.15;78087.53;5015862;28;20057;-71
2022/10/22 00:30:12;;;;;;;11.02;4.22;;;;;;;-143.48;91.23;78077.63;5015971;28;20057;-71
2022/10/22 00:32:38;;;;;;;11.60;3.42;;;;;;;-143.48;91.43;78089.50;5015822;28;20033;-71
2022/10/22 00:35:04;;;;;;;10.98;3.65;;;;;;;-143.48;91.37;78091.50;5015913;28;20076;-72
2022/10/22 00:37:29;;;;;;;7.10;3.60;;;;;;;-143.48;91.18;78087.53;5014517;28;20465;-71
2022/10/22 00:39:55;;;;;;;8.57;3.55;;;;;;;-143.48;91.38;78089.50;5015735;28;20026;-70
2022/10/22 00:42:23;;;;;;;16.63;3.60;;;;;;;-143.48;91.24;78083.56;5015612;28;20022;-70
2022/10/22 00:45:13;;;;;;;8.55;3.50;;;;;;;-143.48;91.25;78079.59;5015666;28;20032;-71
2022/10/22 00:47:47;;;;;;;9.48;3.50;;;;;;;-143.48;91.15;78083.56;5015603;28;20030;-70
2022/10/22 00:50:16;;;;;;;11.63;3.55;;;;;;;-143.48;91.34;78091.50;5015650;28;20057;-70
2022/10/22 00:52:42;;;;;;;11.32;3.70;;;;;;;-143.48;91.20;78083.56;5014165;28;20497;-71
2022/10/22 00:55:08;;;;;;;11.07;3.80;;;;;;;-143.48;91.41;78085.53;5015398;28;20050;-70
2022/10/22 00:57:35;;;;;;;15.35;3.65;;;;;;;-143.48;91.23;78089.50;5015227;28;20397;-71
2022/10/22 01:00:01;;;;;;;8.88;3.55;;;;;;;-143.48;91.40;78095.47;5015561;28;20030;-70
2022/10/22 01:02:26;;;;;;;11.00;3.70;;;;;;;-143.48;91.33;78093.47;5015134;28;20053;-70
2022/10/22 01:04:52;;;;;;;12.18;3.50;;;;;;;-143.48;91.31;78103.41;4997847;28;20084;-70
2022/10/22 01:07:21;;;;;;;15.40;3.50;;;;;;;-143.48;91.55;78107.34;5015139;28;20060;-70
2022/10/22 01:10:09;;;;;;;8.75;3.65;;;;;;;-143.48;91.60;78111.31;5015013;28;20025;-70
2022/10/22 01:13:05;;;;;;;10.77;3.35;;;;;;;-143.48;91.56;78107.34;5015071;28;20068;-70
2022/10/22 01:15:40;;;;;;;10.68;3.63;;;;;;;-143.48;91.45;78111.31;5014890;28;20048;-71
2022/10/22 01:18:30;;;;;;;7.30;3.33;;;;;;;-143.48;91.24;78107.34;5014996;28;20026;-70
2022/10/22 01:21:27;;;;;;;11.35;3.38;;;;;;;-143.48;91.11;78115.28;5014800;28;20026;-70
2022/10/22 01:23:59;;;;;;;14.23;3.60;;;;;;;-143.48;91.08;78107.34;5013571;28;20045;-70
2022/10/22 01:26:27;;;;;;;11.43;3.78;;;;;;;-143.48;91.15;78111.31;5014863;28;20037;-71
2022/10/22 01:29:08;;;;;;;8.57;3.38;;;;;;;-143.48;91.08;78113.31;5014930;28;20026;-70
2022/10/22 01:31:57;;;;;;;16.95;4.05;;;;;;;-143.48;90.99;78111.31;5014712;28;20033;-70
2022/10/22 01:34:24;;;;;;;13.18;4.45;;;;;;;-143.48;91.05;78113.31;5014697;28;20036;-70
2022/10/22 01:36:51;;;;;;;12.23;3.60;;;;;;;-143.48;91.02;78113.31;5012812;28;20393;-70
2022/10/22 01:39:18;;;;;;;16.35;3.85;;;;;;;-143.48;90.82;78107.34;5014486;28;20392;-70
2022/10/22 01:41:44;;;;;;;10.18;3.40;;;;;;;-143.48;90.69;78107.34;5015404;28;20109;-72
2022/10/22 01:44:27;;;;;;;12.65;3.50;;;;;;;-143.48;90.67;78107.34;5016426;28;20030;-71
2022/10/22 01:46:59;;;;;;;16.25;4.07;;;;;;;-143.48;90.75;78113.31;5013214;28;20536;-71
2022/10/22 01:49:43;;;;;;;10.35;3.63;;;;;;;-143.48;90.67;78113.31;5014246;28;20120;-71
2022/10/22 01:52:45;;;;;;;7.13;2.97;;;;;;;-143.48;90.79;78107.34;5014469;28;20108;-70
2022/10/22 01:55:20;;;;;;;10.05;3.38;;;;;;;-143.48;90.81;78099.44;5014046;28;20030;-70
2022/10/22 01:58:17;;;;;;;7.70;3.33;;;;;;;-143.48;90.61;78101.41;4996636;28;20045;-69
2022/10/22 02:01:12;;;;;;;18.75;3.75;;;;;;;-143.48;90.80;78111.31;5014149;28;20026;-72
2022/10/22 02:03:44;;;;;;;8.20;3.10;;;;;;;-143.48;90.75;78105.38;5014322;28;20034;-72
2022/10/22 02:06:15;;;;;;;9.95;3.22;;;;;;;-143.48;90.70;78103.41;5013962;28;20112;-69
2022/10/22 02:08:42;;;;;;;11.02;3.33;;;;;;;-143.48;90.57;78101.41;5014353;28;20040;-69
2022/10/22 02:11:08;;;;;;;12.98;3.22;;;;;;;-143.48;90.74;78095.47;5013145;28;20030;-71
2022/10/22 02:13:40;;;;;;;8.18;2.83;;;;;;;-143.48;90.30;78097.44;5014650;28;20117;-72
2022/10/22 02:16:08;;;;;;;13.05;3.10;;;;;;;-143.48;90.50;78099.44;5014342;28;20025;-69
2022/10/22 02:18:38;;;;;;;11.38;3.45;;;;;;;-143.48;90.28;78097.44;5015763;28;20033;-71
2022/10/22 02:21:05;;;;;;;11.93;2.80;;;;;;;-143.48;89.83;78087.53;5014181;28;20470;-71
2022/10/22 02:23:30;;;;;;;11.82;3.38;;;;;;;-143.48;89.78;78093.47;5014479;28;20053;-71
2022/10/22 02:26:04;;;;;;;15.43;3.00;;;;;;;-143.48;89.40;78085.53;5013945;28;20132;-71
2022/10/22 02:28:49;;;;;;;11.35;3.28;;;;;;;-143.48;89.33;78097.44;5013220;28;20108;-71
2022/10/22 02:31:22;;;;;;;12.00;3.47;;;;;;;-143.48;89.13;78087.53;5013786;28;20029;-71
2022/10/22 02:33:52;;;;;;;11.70;3.40;;;;;;;-143.48;88.81;78087.53;5012848;28;20049;-71
2022/10/22 02:36:18;;;;;;;8.60;3.15;;;;;;;-143.48;89.03;78085.53;5012440;28;20030;-71
2022/10/22 02:38:46;;;;;;;11.23;3.20;;;;;;;-143.48;88.76;78095.47;5012315;28;20030;-71
2022/10/22 02:41:12;;;;;;;7.43;2.95;;;;;;;-143.48;88.84;78097.44;5013681;28;20083;-71
2022/10/22 02:43:41;;;;;;;11.38;3.08;;;;;;;-143.48;88.51;78095.47;5012909;28;20026;-71
2022/10/22 02:46:06;;;;;;;9.35;2.90;;;;;;;-143.48;88.67;78095.47;5012483;28;20101;-70
2022/10/22 02:48:31;;;;;;;15.35;2.90;;;;;;;-143.48;88.71;78101.41;5013731;28;20114;-71
2022/10/22 02:50:56;;;;;;;12.07;3.20;;;;;;;-143.48;89.07;78113.31;5013464;28;20073;-71
2022/10/22 02:53:22;;;;;;;7.43;3.03;;;;;;;-143.48;89.24;78115.28;5013310;28;20030;-70
2022/10/22 02:55:47;;;;;;;12.25;3.17;;;;;;;-143.48;89.12;78109.34;5013365;28;20030;-70
2022/10/22 02:58:12;;;;;;;8.52;3.00;;;;;;;-143.48;89.07;78117.28;5013358;28;20113;-70
2022/10/22 03:00:38;;;;;;;8.68;3.08;;;;;;;-143.48;89.20;78123.22;5013230;28;20069;-71
2022/10/22 03:03:04;;;;;;;11.32;3.58;;;;;;;-143.48;89.23;78127.19;5013291;28;20021;-72
2022/10/22 03:05:29;;;;;;;8.70;2.95;;;;;;;-143.48;89.42;78127.19;5013260;28;20092;-71
2022/10/22 03:07:54;;;;;;;11.05;3.10;;;;;;;-143.48;89.33;78133.13;5013182;28;20143;-71
2022/10/22 03:10:19;;;;;;;10.38;2.92;;;;;;;-143.48;89.49;78135.13;4995852;28;20592;-71
2022/10/22 03:12:45;;;;;;;18.60;3.17;;;;;;;-143.48;89.66;78135.13;5013230;28;20500;-72
2022/10/22 03:15:10;;;;;;;15.43;3.85;;;;;;;-143.48;89.54;78137.09;4995611;28;20022;-71
2022/10/22 03:17:35;;;;;;;11.75;3.50;;;;;;;-143.48;89.70;78139.09;5013099;28;20033;-70
2022/10/22 03:20:01;;;;;;;10.65;3.85;;;;;;;-143.48;89.64;78139.09;5013120;28;20212;-70
2022/10/22 03:22:28;;;;;;;10.85;3.22;;;;;;;-143.48;89.60;78141.06;5013287;28;20453;-70
2022/10/22 03:24:58;;;;;;;15.30;3.33;;;;;;;-143.48;89.78;78143.06;5013060;28;20389;-71
2022/10/22 03:27:27;;;;;;;11.32;3.20;;;;;;;-143.48;89.89;78143.06;5012964;28;20084;-71
2022/10/22 03:29:52;;;;;;;10.73;3.30;;;;;;;-143.48;89.73;78143.06;4995512;28;20026;-71
2022/10/22 03:32:18;;;;;;;12.00;3.80;;;;;;;-143.48;89.71;78151.00;5011795;28;20080;-71
2022/10/22 03:34:43;;;;;;;9.15;3.55;;;;;;;-143.48;89.83;78154.94;4995424;28;20045;-71
2022/10/22 03:37:09;;;;;;;13.32;3.35;;;;;;;-143.48;90.22;78156.94;4996402;28;20037;-74
2022/10/22 03:39:35;;;;;;;14.90;3.20;;;;;;;-143.48;90.22;78158.91;5013048;28;20061;-72
2022/10/22 03:42:01;;;;;;;15.68;3.63;;;;;;;-143.48;90.32;78162.88;5012927;28;20497;-71
2022/10/22 03:44:27;;;;;;;13.00;3.67;;;;;;;-143.48;90.51;78162.88;5012953;28;20034;-71
2022/10/22 03:46:53;;;;;;;11.63;3.53;;;;;;;-143.48;90.35;78166.84;4995432;28;20026;-71
2022/10/22 03:49:18;;;;;;;12.68;3.88;;;;;;;-143.48;90.51;78170.81;5011310;28;20072;-70
2022/10/22 03:51:43;;;;;;;11.10;3.80;;;;;;;-143.48;90.57;78170.81;5012898;28;20041;-70
2022/10/22 03:54:09;;;;;;;12.85;4.07;;;;;;;-143.48;90.76;78186.69;4995635;28;20057;-70
2022/10/22 03:56:35;;;;;;;11.52;3.92;;;;;;;-143.48;91.05;78182.72;5011788;28;20049;-71
2022/10/22 03:59:00;;;;;;;12.52;3.75;;;;;;;-143.48;91.28;78188.66;5012755;28;20080;-70
2022/10/22 04:01:28;;;;;;;11.43;3.75;;;;;;;-143.48;91.60;78194.63;4997335;28;20125;-71
2022/10/22 04:03:54;;;;;;;14.80;3.78;;;;;;;-143.48;91.51;78194.63;5016335;28;20496;-70
2022/10/22 04:06:19;;;;;;;12.50;3.65;;;;;;;-143.48;91.96;78206.50;5016265;28;20030;-71
2022/10/22 04:08:45;;;;;;;15.45;3.88;;;;;;;-143.48;92.14;78204.53;5016232;28;20128;-71
2022/10/22 04:11:12;;;;;;;9.50;3.80;;;;;;;-143.48;92.22;78210.47;5016318;28;20429;-70
2022/10/22 04:13:37;;;;;;;8.45;3.60;;;;;;;-143.48;92.59;78214.44;5016145;28;20026;-71
2022/10/22 04:16:15;;;;;;;12.05;3.85;;;;;;;-143.48;92.68;78218.41;5016058;28;20033;-70
2022/10/22 04:18:42;;;;;;;15.45;4.13;;;;;;;-143.48;92.96;78218.41;5016084;28;20444;-70
2022/10/22 04:21:09;;;;;;;13.90;4.28;;;;;;;-143.48;92.86;78218.41;5015958;28;20466;-70
2022/10/22 04:23:35;;;;;;;9.38;3.75;;;;;;;-143.48;92.93;78220.41;5015883;28;20022;-70
2022/10/22 04:26:04;;;;;;;15.50;4.75;;;;;;;-143.48;93.01;78222.38;5015918;28;20030;-70
2022/10/22 04:28:29;;;;;;;8.68;3.85;;;;;;;-143.48;92.84;78222.38;4998461;28;20022;-70
2022/10/22 04:30:54;;;;;;;12.43;4.68;;;;;;;-143.48;92.96;78218.41;5015792;28;20036;-71
2022/10/22 04:33:19;;;;;;;16.23;4.28;;;;;;;-143.48;92.89;78224.38;5015974;28;20066;-71
2022/10/22 04:35:45;;;;;;;11.52;4.10;;;;;;;-143.48;92.94;78230.31;4998185;28;20034;-71
2022/10/22 04:38:10;;;;;;;10.57;3.88;;;;;;;-143.48;93.08;78222.38;4998181;28;20107;-71
2022/10/22 04:40:35;;;;;;;14.50;4.07;;;;;;;-143.48;92.91;78218.41;5015711;28;20087;-70
2022/10/22 04:43:01;;;;;;;11.88;4.20;;;;;;;-143.48;92.83;78218.41;5015759;28;20105;-69
2022/10/22 04:45:26;;;;;;;10.38;4.00;;;;;;;-143.48;92.87;78214.44;5014193;28;20037;-70
2022/10/22 04:47:51;;;;;;;17.15;4.07;;;;;;;-143.48;92.61;78222.38;5015444;28;20029;-70
2022/10/22 04:50:17;;;;;;;14.57;4.25;;;;;;;-143.48;92.63;78218.41;5015456;28;20064;-70
2022/10/22 04:52:42;;;;;;;12.40;4.15;;;;;;;-143.48;92.43;78212.47;5015459;28;20501;-69
2022/10/22 04:55:07;;;;;;;8.93;4.00;;;;;;;-143.48;92.52;78222.38;5015250;28;20022;-70
2022/10/22 04:57:33;;;;;;;14.90;4.13;;;;;;;-143.48;92.92;78228.31;5015160;28;20026;-70
2022/10/22 04:59:58;;;;;;;10.85;3.80;;;;;;;-143.48;92.75;78226.34;5015444;28;20030;-71
2022/10/22 05:02:23;;;;;;;12.05;3.90;;;;;;;-143.48;92.91;78232.28;5015264;28;20033;-71
2022/10/22 05:04:49;;;;;;;12.18;3.97;;;;;;;-143.48;92.91;78238.25;5015138;28;20025;-71
2022/10/22 05:07:14;;;;;;;19.00;4.50;;;;;;;-143.48;93.24;78238.25;5015143;28;20127;-71
2022/10/22 05:09:39;;;;;;;9.90;3.80;;;;;;;-143.48;93.15;78234.28;5015078;28;20022;-71
2022/10/22 05:12:05;;;;;;;15.27;4.60;;;;;;;-143.48;93.10;78240.22;5012939;28;20116;-73
2022/10/22 05:14:31;;;;;;;9.80;4.00;;;;;;;-143.48;93.22;78238.25;5015186;28;20022;-70
2022/10/22 05:16:57;;;;;;;14.40;4.13;;;;;;;-143.48;93.37;78238.25;5015276;28;20024;-70
2022/10/22 05:19:26;;;;;;;17.40;4.15;;;;;;;-143.48;93.50;78232.28;5014950;28;20033;-70
2022/10/22 05:21:54;;;;;;;18.05;4.30;;;;;;;-143.48;93.38;78234.28;5015023;28;20028;-71
2022/10/22 05:24:20;;;;;;;14.65;4.18;;;;;;;-143.48;93.46;78238.25;5014851;28;20484;-71
2022/10/22 05:26:50;;;;;;;18.05;4.20;;;;;;;-143.48;93.43;78246.19;5016315;28;20108;-72
2022/10/22 05:29:16;;;;;;;16.40;4.13;;;;;;;-143.48;93.34;78242.22;5014284;28;20029;-72
2022/10/22 05:31:41;;;;;;;12.45;4.03;;;;;;;-143.48;93.55;78248.16;5014809;28;20029;-71
2022/10/22 05:34:07;;;;;;;12.65;3.95;;;;;;;-143.48;93.50;78248.16;5014618;28;20079;-72
2022/10/22 05:36:32;;;;;;;13.82;4.10;;;;;;;-143.48;93.48;78260.06;5014600;28;20026;-71
2022/10/22 05:38:57;;;;;;;10.98;4.03;;;;;;;-143.48;93.58;78264.03;5014673;28;20469;-70
2022/10/22 05:41:24;;;;;;;15.52;4.32;;;;;;;-143.48;93.85;78264.03;5014526;28;20061;-70
2022/10/22 05:43:52;;;;;;;16.77;4.13;;;;;;;-143.48;93.69;78266.00;5014497;28;20048;-70
2022/10/22 05:46:20;;;;;;;14.00;4.30;;;;;;;-143.48;93.94;78268.00;5014397;28;20034;-70
2022/10/22 05:48:50;;;;;;;9.23;3.80;;;;;;;-143.48;94.07;78271.97;4996735;28;20404;-71
2022/10/22 05:51:15;;;;;;;7.90;3.67;;;;;;;-143.48;94.00;78269.97;5014174;28;20057;-70
2022/10/22 05:53:41;;;;;;;10.73;3.85;;;;;;;-143.48;93.79;78279.88;4996718;28;20022;-71
2022/10/22 05:56:11;;;;;;;12.32;3.85;;;;;;;-143.48;94.06;78287.81;5014213;28;20075;-71
2022/10/22 05:58:36;;;;;;;14.07;3.92;;;;;;;-143.48;94.17;78279.88;5014229;28;20496;-71
2022/10/22 06:01:07;;;;;;;11.88;3.72;;;;;;;-143.48;93.88;78281.88;5014426;28;20018;-71
2022/10/22 06:03:32;;;;;;;10.63;3.40;;;;;;;-143.48;93.89;78285.84;4996608;28;20033;-71
2022/10/22 06:06:05;;;;;;;12.95;3.28;;;;;;;-143.48;93.70;78285.84;5014066;28;20137;-70
2022/10/22 06:08:31;;;;;;;10.20;3.72;;;;;;;-143.48;93.75;78293.78;5014169;28;20036;-70
2022/10/22 06:10:56;;;;;;;12.45;3.42;;;;;;;-143.48;93.74;78285.84;5014084;28;20018;-72
2022/10/22 06:13:22;;;;;;;14.90;3.70;;;;;;;-143.48;93.40;78291.78;5013890;28;20022;-71
2022/10/22 06:15:49;;;;;;;12.55;3.67;;;;;;;-143.48;93.44;78289.81;5014529;28;20033;-72
2022/10/22 06:18:16;;;;;;;14.20;3.50;;;;;;;-143.48;93.07;78289.81;5000338;28;20025;-75
2022/10/22 06:20:42;;;;;;;15.43;3.70;;;;;;;-143.48;93.25;78283.84;5017453;28;20030;-71
2022/10/22 06:23:07;;;;;;;14.77;3.38;;;;;;;-143.48;92.90;78277.91;5016601;28;20029;-74
2022/10/22 06:25:33;;;;;;;15.45;3.35;;;;;;;-143.48;92.65;78279.88;5015569;28;20026;-71
2022/10/22 06:27:58;;;;;;;15.30;3.08;;;;;;;-143.48;92.43;78281.88;5013336;28;20026;-70
2022/10/22 06:30:23;;;;;;;8.85;3.00;;;;;;;-143.48;92.06;78269.97;5013847;28;20045;-70
2022/10/22 06:32:49;;;;;;;11.88;3.10;;;;;;;-143.48;91.76;78262.03;5013966;28;20018;-71
2022/10/22 06:35:14;;;;;;;16.70;3.20;;;;;;;-143.48;91.64;78268.00;5013576;28;20029;-71
2022/10/22 06:37:39;;;;;;;13.55;3.47;;;;;;;-143.48;91.58;78275.94;5013607;28;20021;-71
2022/10/22 06:40:05;;;;;;;11.35;3.50;;;;;;;-143.48;91.51;78266.00;5013540;28;20056;-71
2022/10/22 06:42:31;;;;;;;11.65;3.47;;;;;;;-143.48;91.02;78260.06;5012264;28;20026;-70
2022/10/22 06:44:56;;;;;;;12.10;3.30;;;;;;;-143.48;90.44;78262.03;5013522;28;20108;-70
2022/10/22 06:47:21;;;;;;;11.20;3.22;;;;;;;-143.48;90.42;78262.03;5013717;28;20030;-70
2022/10/22 06:49:48;;;;;;;14.27;3.20;;;;;;;-143.48;90.18;78260.06;4995763;28;20053;-70
2022/10/22 06:52:14;;;;;;;11.60;3.15;;;;;;;-143.48;90.27;78273.94;5013429;28;20444;-71
2022/10/22 06:54:39;;;;;;;15.55;3.08;;;;;;;-143.48;90.11;78262.03;5013280;28;20022;-71
2022/10/22 06:57:04;;;;;;;19.40;3.55;;;;;;;-143.48;90.04;78262.03;4995654;28;20374;-71
2022/10/22 06:59:30;;;;;;;12.52;3.30;;;;;;;-143.48;89.88;78262.03;5013438;28;20065;-70
2022/10/22 07:01:55;;;;;;;12.93;3.45;;;;;;;-143.48;89.58;78258.06;5013644;28;20033;-70
2022/10/22 07:04:20;;;;;;;10.10;3.15;;;;;;;-143.48;89.45;78266.00;5013317;28;20029;-71
2022/10/22 07:06:46;;;;;;;13.90;3.35;;;;;;;-143.48;89.23;78264.03;5013290;28;20037;-70
2022/10/22 07:09:11;;;;;;;12.48;3.28;;;;;;;-143.48;89.26;78260.06;5013430;28;20026;-70
2022/10/22 07:11:40;;;;;;;14.13;3.80;;;;;;;-143.48;88.68;78246.19;5013212;28;20026;-71
2022/10/22 07:14:06;;;;;;;19.02;3.58;;;;;;;-143.48;88.74;78246.19;5013385;28;20030;-71
2022/10/22 07:16:31;;;;;;;16.02;3.53;;;;;;;-143.48;88.67;78244.19;5013673;28;20381;-71
2022/10/22 07:18:56;;;;;;;14.07;3.80;;;;;;;-143.48;88.04;78242.22;5012768;28;20030;-72
2022/10/22 07:21:22;;;;;;;10.50;3.60;;;;;;;-143.48;88.05;78236.25;4996881;28;20592;-71
2022/10/22 07:23:47;;;;;;;9.95;3.25;;;;;;;-143.48;87.60;78226.34;5014535;28;20049;-71
2022/10/22 07:26:15;;;;;;;9.18;3.45;;;;;;;-143.48;87.47;78224.38;5014400;28;20105;-71
2022/10/22 07:28:40;;;;;;;24.60;3.60;;;;;;;-143.48;87.07;78220.41;5012952;28;20032;-71
2022/10/22 07:31:10;;;;;;;13.73;3.13;;;;;;;-143.48;86.90;78226.34;5013315;28;20420;-73
2022/10/22 07:33:36;;;;;;;15.15;3.40;;;;;;;-143.48;86.86;78214.44;5013168;28;20036;-70
2022/10/22 07:36:04;;;;;;;9.77;2.90;;;;;;;-143.48;86.40;78224.38;5014795;28;20451;-71
2022/10/22 07:38:30;;;;;;;11.88;3.00;;;;;;;-143.48;85.88;78212.47;5016636;28;20120;-70
2022/10/22 07:40:56;;;;;;;12.05;3.20;;;;;;;-143.48;84.86;78172.81;5016677;28;20465;-72
2022/10/22 07:43:21;;;;;;;8.68;2.63;;;;;;;-143.48;82.46;78119.25;5016761;28;20060;-71
2022/10/22 07:45:46;;;;;;;10.90;3.10;;;;;;;-143.48;79.08;77990.34;5016414;28;20503;-71
2022/10/22 07:48:12;;;;;;;10.77;2.70;;;;;;;-143.48;64.92;77686.97;5016481;28;20108;-72
2022/10/22 07:50:38;;;;;;;9.25;2.50;;;;;;;-143.48;60.55;77643.34;5016400;28;20042;-71
2022/10/22 07:53:03;;;;;;;10.70;2.75;;;;;;;-143.48;69.38;77891.22;5014765;28;20076;-71
2022/10/22 07:55:28;;;;;;;11.88;3.05;;;;;;;-143.48;71.45;77964.56;5015130;28;20021;-72
2022/10/22 07:57:53;;;;;;;14.75;3.00;;;;;;;-143.48;73.11;77972.50;5016601;28;20018;-71
2022/10/22 08:00:19;;;;;;;14.85;2.72;;;;;;;-143.48;67.18;77770.25;5016127;28;20029;-71
2022/10/22 08:02:45;;;;;;;9.63;2.38;;;;;;;-143.48;70.89;77976.47;5015419;28;20030;-71
2022/10/22 08:05:12;;;;;;;10.38;2.60;;;;;;;-143.48;73.70;78037.94;5016446;28;20028;-71
2022/10/22 08:07:38;;;;;;;10.05;2.50;;;;;;;-143.48;76.33;78083.56;4998845;28;20033;-72
2022/10/22 08:10:04;;;;;;;12.15;3.35;;;;;;;-143.48;77.91;78101.41;5016239;28;20033;-72
2022/10/22 08:12:29;;;;;;;12.35;3.13;;;;;;;-143.48;78.04;78127.19;5016349;28;20038;-72
2022/10/22 08:14:54;;;;;;;15.40;2.75;;;;;;;-143.48;79.30;78147.03;5014903;28;20084;-72
2022/10/22 08:17:20;;;;;;;11.63;3.10;;;;;;;-143.48;80.96;78160.91;5015963;28;20089;-73
2022/10/22 08:19:45;;;;;;;12.85;2.50;;;;;;;-143.48;81.10;78164.88;5014730;28;20041;-72
2022/10/22 08:22:10;;;;;;;11.75;2.50;;;;;;;-143.48;81.11;78164.88;5016104;28;20496;-72
2022/10/22 08:24:36;;;;;;;15.38;3.60;;;;;;;-143.48;81.58;78174.78;5016052;28;20109;-73
2022/10/22 08:27:01;;;;;;;8.95;2.47;;;;;;;-143.48;80.95;78158.91;5014678;28;20037;-71
2022/10/22 08:29:26;;;;;;;11.93;2.75;;;;;;;-143.48;80.95;78162.88;5016105;28;20041;-71
2022/10/22 08:31:52;;;;;;;10.77;2.95;;;;;;;-143.48;80.62;78145.03;5016469;28;20069;-72
2022/10/22 08:34:19;;;;;;;9.70;2.67;;;;;;;-143.48;78.80;78095.47;4998167;28;20049;-71
2022/10/22 08:36:44;;;;;;;13.18;2.72;;;;;;;-143.48;78.99;78123.22;4998095;28;20026;-71
2022/10/22 08:39:10;;;;;;;10.35;2.47;;;;;;;-143.48;79.81;78123.22;5015703;28;20025;-71
2022/10/22 08:41:42;;;;;;;14.13;2.40;;;;;;;-143.48;79.17;78113.31;5015729;28;20033;-71
2022/10/22 08:44:26;;;;;;;11.13;2.50;;;;;;;-143.48;78.98;78117.28;4997889;28;20033;-71
2022/10/22 08:47:18;;;;;;;10.35;2.60;;;;;;;-143.48;80.25;78145.03;5015225;28;20065;-72
2022/10/22 08:49:44;;;;;;;13.50;2.67;;;;;;;-143.48;79.31;78127.19;4993816;28;20046;-71
2022/10/22 08:52:15;;;;;;;14.45;2.70;;;;;;;-143.48;79.99;78135.13;5015515;28;20029;-71
2022/10/22 08:54:52;;;;;;;11.75;2.80;;;;;;;-143.48;80.00;78143.06;5015326;28;20041;-72
2022/10/22 08:57:41;;;;;;;12.10;2.67;;;;;;;-143.48;79.48;78141.06;5015361;28;20037;-72
2022/10/22 09:00:10;;;;;;;15.50;2.72;;;;;;;-143.48;79.54;78139.09;5015296;28;20571;-72
2022/10/22 09:02:38;;;;;;;13.10;2.67;;;;;;;-143.48;78.95;78133.13;4997697;28;20044;-71
2022/10/22 09:05:26;;;;;;;12.48;2.40;;;;;;;-143.48;79.38;78141.06;4997644;28;20030;-71
2022/10/22 09:07:53;;;;;;;10.73;2.55;;;;;;;-143.48;79.29;78147.03;5003659;28;20041;-72
2022/10/22 09:10:23;;;;;;;12.05;2.72;;;;;;;-143.48;78.68;78121.25;5013752;28;20389;-71
2022/10/22 09:12:49;;;;;;;15.05;2.80;;;;;;;-143.48;78.85;78133.13;5013796;28;20029;-71
2022/10/22 09:15:17;;;;;;;17.73;3.30;;;;;;;-143.48;79.01;78121.25;5015149;28;20026;-71
2022/10/22 09:17:54;;;;;;;11.98;2.33;;;;;;;-143.48;78.38;78133.13;5015018;28;20045;-72
2022/10/22 09:20:27;;;;;;;11.07;2.80;;;;;;;-143.48;77.73;78107.34;5014874;28;20409;-72
2022/10/22 09:23:11;;;;;;;21.65;2.97;;;;;;;-143.48;77.67;78117.28;5013606;28;20049;-73
2022/10/22 09:25:38;;;;;;;13.02;2.35;;;;;;;-143.48;78.28;78135.13;5014747;28;20045;-71
2022/10/22 09:28:03;;;;;;;13.13;2.53;;;;;;;-143.48;77.43;78103.41;5013539;28;20075;-71
2022/10/22 09:30:33;;;;;;;12.00;2.55;;;;;;;-143.48;76.95;78099.44;5014775;28;20037;-71
2022/10/22 09:33:05;;;;;;;12.05;2.45;;;;;;;-143.48;77.27;78117.28;5014790;28;20026;-72
2022/10/22 09:35:42;;;;;;;7.68;2.15;;;;;;;-143.48;77.12;78095.47;5014709;28;20470;-73
2022/10/22 09:38:07;;;;;;;11.63;2.55;;;;;;;-143.48;77.14;78097.44;5014669;28;20067;-72
2022/10/22 09:40:45;;;;;;;12.38;2.70;;;;;;;-143.48;75.38;78065.72;4996975;28;20029;-71
2022/10/22 09:43:12;;;;;;;11.10;2.47;;;;;;;-143.48;74.58;78049.84;5014352;28;20021;-72
2022/10/22 09:45:37;;;;;;;9.70;2.15;;;;;;;-143.48;75.26;78079.59;5013193;28;20022;-72
2022/10/22 09:48:29;;;;;;;10.18;2.35;;;;;;;-143.48;74.04;78020.09;5014424;28;20428;-73
2022/10/22 09:51:01;;;;;;;11.43;2.33;;;;;;;-143.48;67.39;77788.09;5014299;28;20455;-71
2022/10/22 09:53:35;;;;;;;14.30;2.58;;;;;;;-143.48;63.53;77756.38;5014252;28;20036;-71
2022/10/22 09:56:08;;;;;;;14.38;2.40;;;;;;;-143.48;55.76;77447.03;5014197;28;20163;-72
2022/10/22 09:58:44;;;;;;;8.98;2.40;;;;;;;-143.48;46.50;77123.88;5013805;28;20026;-72
2022/10/22 10:01:35;;;;;;;9.10;2.40;;;;;;;-143.48;45.62;77090.16;4996564;28;20029;-72
2022/10/22 10:04:06;;;;;;;12.95;2.65;;;;;;;-143.48;45.62;77203.19;5014027;28;20513;-72
2022/10/22 10:06:33;;;;;;;10.02;2.50;;;;;;;-143.48;56.30;77621.53;5014033;28;20035;-72
2022/10/22 10:09:02;;;;;;;9.68;2.20;;;;;;;-143.48;60.10;77772.22;5012747;28;20022;-71
2022/10/22 10:11:52;;;;;;;12.38;2.28;;;;;;;-143.48;58.85;77696.88;4996375;28;20068;-71
2022/10/22 10:14:26;;;;;;;10.43;2.50;;;;;;;-143.48;59.01;77722.66;5013949;28;20544;-71
2022/10/22 10:17:16;;;;;;;11.13;2.30;;;;;;;-143.48;62.38;77861.47;5013875;28;20057;-72
2022/10/22 10:20:10;;;;;;;9.50;2.63;;;;;;;-143.48;64.06;77897.16;4996190;28;20081;-71
2022/10/22 10:22:58;;;;;;;15.32;2.95;;;;;;;-143.48;67.02;77978.47;5013889;28;20392;-72
2022/10/22 10:25:47;;;;;;;9.48;2.47;;;;;;;-143.48;64.28;77889.22;4996203;28;20026;-74
2022/10/22 10:28:34;;;;;;;10.02;2.65;;;;;;;-143.48;66.99;77998.28;5013676;28;20486;-72
2022/10/22 10:31:08;;;;;;;12.95;2.55;;;;;;;-143.48;68.56;78057.78;5013751;28;20079;-71
2022/10/22 10:33:56;;;;;;;12.32;2.72;;;;;;;-143.48;69.74;78043.91;5016098;28;20044;-74
2022/10/22 10:36:42;;;;;;;14.30;2.92;;;;;;;-143.48;69.24;78045.88;5016352;28;20018;-75
2022/10/22 10:39:14;;;;;;;15.27;2.65;;;;;;;-143.48;67.87;78006.22;5014031;28;20396;-71
2022/10/22 10:41:57;;;;;;;12.05;2.60;;;;;;;-143.48;65.43;77917.00;5012324;28;20034;-71
2022/10/22 10:44:47;;;;;;;13.25;2.50;;;;;;;-143.48;61.89;77835.69;5013591;28;20029;-72
2022/10/22 10:47:36;;;;;;;7.30;2.20;;;;;;;-143.48;62.25;77857.50;5012019;28;20025;-71
2022/10/22 10:50:23;;;;;;;11.18;2.60;;;;;;;-143.48;59.07;77770.25;5013298;28;20505;-71
2022/10/22 10:53:13;;;;;;;11.02;2.42;;;;;;;-143.48;64.12;77928.88;4995766;28;20029;-72
2022/10/22 10:55:54;;;;;;;11.20;2.22;;;;;;;-143.48;64.86;77944.75;5013727;28;20026;-72
2022/10/22 10:58:51;;;;;;;7.93;2.17;;;;;;;-143.48;66.36;78000.28;4995769;28;20117;-70
2022/10/22 11:01:31;;;;;;;13.45;2.65;;;;;;;-143.48;66.67;77990.34;5013599;28;20400;-71
2022/10/22 11:04:21;;;;;;;10.52;2.38;;;;;;;-143.48;61.66;77805.94;5013302;28;20022;-71
2022/10/22 11:06:49;;;;;;;9.63;2.35;;;;;;;-143.48;61.70;77867.41;5013137;28;20499;-72
2022/10/22 11:09:23;;;;;;;10.50;2.38;;;;;;;-143.48;62.30;77788.09;5013211;28;20033;-72
2022/10/22 11:11:58;;;;;;;9.05;2.22;;;;;;;-143.48;59.44;77772.22;5016668;28;20165;-72
2022/10/22 11:14:40;;;;;;;9.20;2.35;;;;;;;-143.48;48.45;77264.63;5016045;28;20018;-71
2022/10/22 11:17:14;;;;;;;14.00;2.40;;;;;;;-143.48;47.30;77250.75;5017173;28;20105;-72
2022/10/22 11:20:04;;;;;;;12.85;2.08;;;;;;;-143.48;46.66;77339.97;5017276;28;20032;-72
2022/10/22 11:22:34;;;;;;;11.43;2.25;;;;;;;-143.48;51.51;77484.72;5017104;28;20477;-73
2022/10/22 11:25:11;;;;;;;7.75;2.05;;;;;;;-143.48;49.70;77433.16;5017064;28;20026;-72